This is the latest recevied weather packets stored in our database for station/object EA3BNF-1. If no packets are shown the sender has not sent any weather packets the latest 10 day(s).
| Time | Temp. | Humidity | Pressure | Rain* | Wind** | Luminosity | Snow |
|---|---|---|---|---|---|---|---|
| 1778322819 | 21.11° C | 67% | 1013.1 hPa | - | - | - | - |
| 1778322163 | 21.11° C | 67% | 1013.4 hPa | - | - | - | - |
| 1778321508 | 21.11° C | 66% | 1013.6 hPa | - | - | - | - |
| 1778320852 | 21.67° C | 64% | 1013.6 hPa | - | - | - | - |
| 1778320196 | 21.67° C | 65% | 1013.4 hPa | - | - | - | - |
| 1778319541 | 21.67° C | 64% | 1013.2 hPa | - | - | - | - |
| 1778318885 | 21.67° C | 64% | 1013.3 hPa | - | - | - | - |
| 1778318229 | 21.67° C | 64% | 1013.3 hPa | - | - | - | - |
| 1778317574 | 21.67° C | 63% | 1012.9 hPa | - | - | - | - |
| 1778316918 | 21.67° C | 62% | 1012.5 hPa | - | - | - | - |
| 1778316262 | 21.67° C | 63% | 1012.8 hPa | - | - | - | - |
| 1778315607 | 21.11° C | 64% | 1012.8 hPa | - | - | - | - |
| 1778314951 | 20.56° C | 65% | 1012.7 hPa | - | - | - | - |
| 1778314295 | 20.56° C | 66% | 1012.6 hPa | - | - | - | - |
| 1778313640 | 20° C | 66% | 1012.6 hPa | - | - | - | - |
| 1778312984 | 19.44° C | 67% | 1012.8 hPa | - | - | - | - |
| 1778312326 | 20° C | 67% | 1012.9 hPa | - | - | - | - |
| 1778311670 | 19.44° C | 68% | 1012.7 hPa | - | - | - | - |
| 1778311015 | 18.89° C | 68% | 1012.6 hPa | - | - | - | - |
| 1778310359 | 18.89° C | 70% | 1012.7 hPa | - | - | - | - |
| 1778309703 | 18.89° C | 70% | 1012.7 hPa | - | - | - | - |
| 1778309047 | 18.33° C | 71% | 1013 hPa | - | - | - | - |
| 1778308392 | 18.33° C | 70% | 1012.8 hPa | - | - | - | - |
| 1778307736 | 17.78° C | 73% | 1012.9 hPa | - | - | - | - |
| 1778307081 | 17.22° C | 73% | 1013 hPa | - | - | - | - |
* Rain since midnight (hover to see other rain measurements)
** Current wind speed in m/s (hover to see current wind gust speed)